This is the latest recevied weather packets stored in our database for station/object SP2JGY-2. If no packets are shown the sender has not sent any weather packets the latest 10 day(s).
| Time | Temp. | Humidity | Pressure | Rain* | Wind** | Luminosity | Snow |
|---|---|---|---|---|---|---|---|
| 1788422903 | 17.78° C | 77% | 1018.9 hPa | - | - | - | - |
| 1788422002 | 17.78° C | 79% | 1018.8 hPa | - | - | - | - |
| 1788421101 | 17.22° C | 81% | 1019 hPa | - | - | - | - |
| 1788420200 | 16.67° C | 86% | 1019.1 hPa | - | - | - | - |
| 1788419299 | 16.11° C | 88% | 1019.1 hPa | - | - | - | - |
| 1788418398 | 15.56° C | 89% | 1019.2 hPa | - | - | - | - |
| 1788417497 | 15° C | 90% | 1019.2 hPa | - | - | - | - |
| 1788416596 | 14.44° C | 91% | 1019.3 hPa | - | - | - | - |
| 1788415695 | 13.89° C | 93% | 1019.4 hPa | - | - | - | - |
| 1788414794 | 13.33° C | 94% | 1019.3 hPa | - | - | - | - |
| 1788413893 | 12.78° C | 94% | 1019.3 hPa | - | - | - | - |
| 1788412992 | 12.78° C | 94% | 1019.4 hPa | - | - | - | - |
| 1788412091 | 12.78° C | 94% | 1019.3 hPa | - | - | - | - |
| 1788411191 | 12.22° C | 94% | 1019.3 hPa | - | - | - | - |
| 1788410289 | 12.22° C | 94% | 1019.2 hPa | - | - | - | - |
| 1788409389 | 12.22° C | 94% | 1019.3 hPa | - | - | - | - |
| 1788408487 | 12.78° C | 93% | 1019.4 hPa | - | - | - | - |
| 1788407586 | 12.78° C | 93% | 1019.4 hPa | - | - | - | - |
| 1788406685 | 12.78° C | 93% | 1019.6 hPa | - | - | - | - |
| 1788405786 | 12.78° C | 93% | 1019.6 hPa | - | - | - | - |
| 1788404883 | 12.78° C | 93% | 1019.8 hPa | - | - | - | - |
| 1788403081 | 12.78° C | 94% | 1019.9 hPa | - | - | - | - |
| 1788402180 | 12.78° C | 94% | 1019.9 hPa | - | - | - | - |
| 1788401279 | 12.78° C | 94% | 1020 hPa | - | - | - | - |
| 1788381451 | 14.44° C | 92% | 1020.4 hPa | - | - | - | - |
* Rain since midnight (hover to see other rain measurements)
** Current wind speed in m/s (hover to see current wind gust speed)